sensor_id;sensor_type;location;lat;lon;timestamp;P1;durP1;ratioP1;P2;durP2;ratioP2
7450;SDS011;3767;42.688;23.360;2022-10-15T00:01:05;4.57;;;4.17;;
7450;SDS011;3767;42.688;23.360;2022-10-15T00:03:35;6.20;;;3.80;;
7450;SDS011;3767;42.688;23.360;2022-10-15T00:06:05;4.87;;;4.47;;
7450;SDS011;3767;42.688;23.360;2022-10-15T00:08:32;3.90;;;3.50;;
7450;SDS011;3767;42.688;23.360;2022-10-15T00:11:02;6.07;;;3.50;;
7450;SDS011;3767;42.688;23.360;2022-10-15T00:13:29;4.33;;;3.93;;
7450;SDS011;3767;42.688;23.360;2022-10-15T00:15:57;4.73;;;3.80;;
7450;SDS011;3767;42.688;23.360;2022-10-15T00:18:23;4.40;;;4.00;;
7450;SDS011;3767;42.688;23.360;2022-10-15T00:20:51;5.00;;;4.00;;
7450;SDS011;3767;42.688;23.360;2022-10-15T00:23:17;4.63;;;4.23;;
7450;SDS011;3767;42.688;23.360;2022-10-15T00:25:44;4.73;;;4.23;;
7450;SDS011;3767;42.688;23.360;2022-10-15T00:28:10;5.57;;;4.40;;
7450;SDS011;3767;42.688;23.360;2022-10-15T00:30:37;6.13;;;4.00;;
7450;SDS011;3767;42.688;23.360;2022-10-15T00:33:03;4.20;;;3.80;;
7450;SDS011;3767;42.688;23.360;2022-10-15T00:35:30;4.67;;;3.80;;
7450;SDS011;3767;42.688;23.360;2022-10-15T00:37:58;5.70;;;3.97;;
7450;SDS011;3767;42.688;23.360;2022-10-15T00:40:24;4.17;;;3.87;;
7450;SDS011;3767;42.688;23.360;2022-10-15T00:42:51;4.47;;;4.17;;
7450;SDS011;3767;42.688;23.360;2022-10-15T00:45:17;5.00;;;4.07;;
7450;SDS011;3767;42.688;23.360;2022-10-15T00:47:44;6.53;;;3.90;;
7450;SDS011;3767;42.688;23.360;2022-10-15T00:50:12;5.73;;;3.80;;
7450;SDS011;3767;42.688;23.360;2022-10-15T00:52:41;6.30;;;4.20;;
7450;SDS011;3767;42.688;23.360;2022-10-15T00:55:11;5.63;;;4.00;;
7450;SDS011;3767;42.688;23.360;2022-10-15T00:57:39;4.60;;;4.20;;
7450;SDS011;3767;42.688;23.360;2022-10-15T01:00:07;4.77;;;3.80;;
7450;SDS011;3767;42.688;23.360;2022-10-15T01:02:34;5.20;;;3.60;;
7450;SDS011;3767;42.688;23.360;2022-10-15T01:05:00;4.43;;;3.70;;
7450;SDS011;3767;42.688;23.360;2022-10-15T01:07:27;3.90;;;3.53;;
7450;SDS011;3767;42.688;23.360;2022-10-15T01:09:54;5.07;;;3.53;;
7450;SDS011;3767;42.688;23.360;2022-10-15T01:12:24;4.70;;;4.30;;
7450;SDS011;3767;42.688;23.360;2022-10-15T01:14:55;6.73;;;3.80;;
7450;SDS011;3767;42.688;23.360;2022-10-15T01:17:25;4.87;;;3.80;;
7450;SDS011;3767;42.688;23.360;2022-10-15T01:20:02;4.67;;;4.00;;
7450;SDS011;3767;42.688;23.360;2022-10-15T01:22:36;4.30;;;3.90;;
7450;SDS011;3767;42.688;23.360;2022-10-15T01:25:09;4.20;;;3.87;;
7450;SDS011;3767;42.688;23.360;2022-10-15T01:27:42;4.73;;;4.10;;
7450;SDS011;3767;42.688;23.360;2022-10-15T01:30:20;6.27;;;4.30;;
7450;SDS011;3767;42.688;23.360;2022-10-15T01:32:48;5.97;;;4.33;;
7450;SDS011;3767;42.688;23.360;2022-10-15T01:35:17;7.83;;;4.60;;
7450;SDS011;3767;42.688;23.360;2022-10-15T01:37:48;4.87;;;4.13;;
7450;SDS011;3767;42.688;23.360;2022-10-15T01:40:16;4.87;;;3.57;;
7450;SDS011;3767;42.688;23.360;2022-10-15T01:42:50;7.10;;;4.27;;
7450;SDS011;3767;42.688;23.360;2022-10-15T01:45:19;3.97;;;3.67;;
7450;SDS011;3767;42.688;23.360;2022-10-15T01:47:48;4.17;;;3.83;;
7450;SDS011;3767;42.688;23.360;2022-10-15T01:50:17;5.17;;;3.83;;
7450;SDS011;3767;42.688;23.360;2022-10-15T01:52:45;5.93;;;4.23;;
7450;SDS011;3767;42.688;23.360;2022-10-15T01:55:13;8.90;;;4.00;;
7450;SDS011;3767;42.688;23.360;2022-10-15T01:57:41;6.43;;;4.43;;
7450;SDS011;3767;42.688;23.360;2022-10-15T02:00:09;4.30;;;3.90;;
7450;SDS011;3767;42.688;23.360;2022-10-15T02:02:36;4.37;;;3.97;;
7450;SDS011;3767;42.688;23.360;2022-10-15T02:05:04;3.77;;;3.57;;
7450;SDS011;3767;42.688;23.360;2022-10-15T02:07:32;4.27;;;3.87;;
7450;SDS011;3767;42.688;23.360;2022-10-15T02:10:06;4.10;;;3.67;;
7450;SDS011;3767;42.688;23.360;2022-10-15T02:12:35;3.63;;;3.33;;
7450;SDS011;3767;42.688;23.360;2022-10-15T02:15:04;5.47;;;3.50;;
7450;SDS011;3767;42.688;23.360;2022-10-15T02:17:33;4.17;;;3.83;;
7450;SDS011;3767;42.688;23.360;2022-10-15T02:20:05;4.80;;;3.93;;
7450;SDS011;3767;42.688;23.360;2022-10-15T02:22:36;5.50;;;4.33;;
7450;SDS011;3767;42.688;23.360;2022-10-15T02:25:05;4.97;;;4.17;;
7450;SDS011;3767;42.688;23.360;2022-10-15T02:27:34;5.20;;;4.50;;
7450;SDS011;3767;42.688;23.360;2022-10-15T02:30:02;4.07;;;3.77;;
7450;SDS011;3767;42.688;23.360;2022-10-15T02:32:31;4.60;;;4.10;;
7450;SDS011;3767;42.688;23.360;2022-10-15T02:34:58;6.70;;;4.13;;
7450;SDS011;3767;42.688;23.360;2022-10-15T02:37:27;4.57;;;4.17;;
7450;SDS011;3767;42.688;23.360;2022-10-15T02:39:54;4.50;;;4.07;;
7450;SDS011;3767;42.688;23.360;2022-10-15T02:42:21;5.47;;;4.50;;
7450;SDS011;3767;42.688;23.360;2022-10-15T02:44:47;6.10;;;4.13;;
7450;SDS011;3767;42.688;23.360;2022-10-15T02:47:14;4.50;;;4.10;;
7450;SDS011;3767;42.688;23.360;2022-10-15T02:49:40;4.30;;;4.00;;
7450;SDS011;3767;42.688;23.360;2022-10-15T02:52:07;5.03;;;4.57;;
7450;SDS011;3767;42.688;23.360;2022-10-15T02:54:35;4.67;;;4.10;;
7450;SDS011;3767;42.688;23.360;2022-10-15T02:57:01;4.67;;;3.90;;
7450;SDS011;3767;42.688;23.360;2022-10-15T02:59:28;4.73;;;4.30;;
7450;SDS011;3767;42.688;23.360;2022-10-15T03:01:54;5.03;;;4.30;;
7450;SDS011;3767;42.688;23.360;2022-10-15T03:04:21;4.70;;;4.30;;
7450;SDS011;3767;42.688;23.360;2022-10-15T03:06:47;4.47;;;4.07;;
7450;SDS011;3767;42.688;23.360;2022-10-15T03:09:14;5.23;;;4.73;;
7450;SDS011;3767;42.688;23.360;2022-10-15T03:11:42;5.13;;;4.63;;
7450;SDS011;3767;42.688;23.360;2022-10-15T03:14:09;5.10;;;4.70;;
7450;SDS011;3767;42.688;23.360;2022-10-15T03:16:35;6.03;;;4.27;;
7450;SDS011;3767;42.688;23.360;2022-10-15T03:19:02;5.00;;;4.57;;
7450;SDS011;3767;42.688;23.360;2022-10-15T03:21:28;4.77;;;4.37;;
7450;SDS011;3767;42.688;23.360;2022-10-15T03:23:55;6.23;;;4.77;;
7450;SDS011;3767;42.688;23.360;2022-10-15T03:26:21;7.43;;;5.03;;
7450;SDS011;3767;42.688;23.360;2022-10-15T03:28:49;5.90;;;4.80;;
7450;SDS011;3767;42.688;23.360;2022-10-15T03:31:16;6.30;;;4.63;;
7450;SDS011;3767;42.688;23.360;2022-10-15T03:33:42;7.33;;;4.80;;
7450;SDS011;3767;42.688;23.360;2022-10-15T03:36:09;6.27;;;5.20;;
7450;SDS011;3767;42.688;23.360;2022-10-15T03:38:35;5.20;;;4.70;;
7450;SDS011;3767;42.688;23.360;2022-10-15T03:41:02;6.93;;;4.90;;
7450;SDS011;3767;42.688;23.360;2022-10-15T03:43:28;5.33;;;4.83;;
7450;SDS011;3767;42.688;23.360;2022-10-15T03:45:59;8.77;;;4.80;;
7450;SDS011;3767;42.688;23.360;2022-10-15T03:48:26;5.50;;;5.00;;
7450;SDS011;3767;42.688;23.360;2022-10-15T03:50:52;8.83;;;5.97;;
7450;SDS011;3767;42.688;23.360;2022-10-15T03:53:19;7.10;;;5.87;;
7450;SDS011;3767;42.688;23.360;2022-10-15T03:55:45;6.67;;;5.83;;
7450;SDS011;3767;42.688;23.360;2022-10-15T03:58:12;9.80;;;5.63;;
7450;SDS011;3767;42.688;23.360;2022-10-15T04:00:39;8.23;;;6.03;;
7450;SDS011;3767;42.688;23.360;2022-10-15T04:03:07;7.87;;;5.77;;
7450;SDS011;3767;42.688;23.360;2022-10-15T04:05:34;6.03;;;5.37;;
7450;SDS011;3767;42.688;23.360;2022-10-15T04:08:00;8.47;;;6.50;;
7450;SDS011;3767;42.688;23.360;2022-10-15T04:10:27;6.97;;;5.87;;
7450;SDS011;3767;42.688;23.360;2022-10-15T04:12:54;7.40;;;5.70;;
7450;SDS011;3767;42.688;23.360;2022-10-15T04:15:20;8.87;;;5.73;;
7450;SDS011;3767;42.688;23.360;2022-10-15T04:17:47;7.50;;;5.80;;
7450;SDS011;3767;42.688;23.360;2022-10-15T04:20:15;9.23;;;6.10;;
7450;SDS011;3767;42.688;23.360;2022-10-15T04:22:41;11.67;;;6.33;;
7450;SDS011;3767;42.688;23.360;2022-10-15T04:25:08;7.53;;;6.67;;
7450;SDS011;3767;42.688;23.360;2022-10-15T04:27:34;10.93;;;6.47;;
7450;SDS011;3767;42.688;23.360;2022-10-15T04:30:01;9.93;;;6.63;;
7450;SDS011;3767;42.688;23.360;2022-10-15T04:32:27;6.97;;;6.37;;
7450;SDS011;3767;42.688;23.360;2022-10-15T04:34:54;6.33;;;5.67;;
7450;SDS011;3767;42.688;23.360;2022-10-15T04:37:21;6.00;;;5.47;;
7450;SDS011;3767;42.688;23.360;2022-10-15T04:39:48;8.57;;;6.13;;
7450;SDS011;3767;42.688;23.360;2022-10-15T04:42:14;6.07;;;5.43;;
7450;SDS011;3767;42.688;23.360;2022-10-15T04:44:41;6.20;;;5.53;;
7450;SDS011;3767;42.688;23.360;2022-10-15T04:47:07;6.53;;;5.90;;
7450;SDS011;3767;42.688;23.360;2022-10-15T04:49:34;8.00;;;5.90;;
7450;SDS011;3767;42.688;23.360;2022-10-15T04:52:00;6.70;;;6.00;;
7450;SDS011;3767;42.688;23.360;2022-10-15T04:54:28;8.37;;;6.13;;
7450;SDS011;3767;42.688;23.360;2022-10-15T04:56:55;10.57;;;6.63;;
7450;SDS011;3767;42.688;23.360;2022-10-15T04:59:21;8.23;;;5.87;;
7450;SDS011;3767;42.688;23.360;2022-10-15T05:01:48;7.03;;;5.57;;
7450;SDS011;3767;42.688;23.360;2022-10-15T05:04:14;9.10;;;5.40;;
7450;SDS011;3767;42.688;23.360;2022-10-15T05:06:41;8.33;;;6.30;;
7450;SDS011;3767;42.688;23.360;2022-10-15T05:09:07;7.63;;;6.13;;
7450;SDS011;3767;42.688;23.360;2022-10-15T05:11:35;8.57;;;6.00;;
7450;SDS011;3767;42.688;23.360;2022-10-15T05:14:02;9.13;;;5.77;;
7450;SDS011;3767;42.688;23.360;2022-10-15T05:16:29;10.20;;;5.83;;
7450;SDS011;3767;42.688;23.360;2022-10-15T05:18:56;8.93;;;7.03;;
7450;SDS011;3767;42.688;23.360;2022-10-15T05:21:23;12.07;;;6.40;;
7450;SDS011;3767;42.688;23.360;2022-10-15T05:23:50;11.17;;;5.53;;
7450;SDS011;3767;42.688;23.360;2022-10-15T05:26:17;7.10;;;5.60;;
7450;SDS011;3767;42.688;23.360;2022-10-15T05:28:45;7.33;;;6.03;;
7450;SDS011;3767;42.688;23.360;2022-10-15T05:31:12;8.77;;;6.07;;
7450;SDS011;3767;42.688;23.360;2022-10-15T05:33:39;6.93;;;5.67;;
7450;SDS011;3767;42.688;23.360;2022-10-15T05:36:09;7.67;;;5.47;;
7450;SDS011;3767;42.688;23.360;2022-10-15T05:38:36;9.17;;;5.47;;
7450;SDS011;3767;42.688;23.360;2022-10-15T05:41:03;6.60;;;5.50;;
7450;SDS011;3767;42.688;23.360;2022-10-15T05:43:29;5.80;;;5.30;;
7450;SDS011;3767;42.688;23.360;2022-10-15T05:45:57;9.60;;;6.17;;
7450;SDS011;3767;42.688;23.360;2022-10-15T05:48:24;11.27;;;5.83;;
7450;SDS011;3767;42.688;23.360;2022-10-15T05:50:51;7.80;;;5.73;;
7450;SDS011;3767;42.688;23.360;2022-10-15T05:53:17;6.77;;;5.97;;
7450;SDS011;3767;42.688;23.360;2022-10-15T05:55:44;10.40;;;6.30;;
7450;SDS011;3767;42.688;23.360;2022-10-15T05:58:10;8.10;;;6.43;;
7450;SDS011;3767;42.688;23.360;2022-10-15T06:00:37;8.97;;;5.73;;
7450;SDS011;3767;42.688;23.360;2022-10-15T06:03:05;8.93;;;5.57;;
7450;SDS011;3767;42.688;23.360;2022-10-15T06:05:31;8.67;;;5.87;;
7450;SDS011;3767;42.688;23.360;2022-10-15T06:07:58;10.13;;;5.77;;
7450;SDS011;3767;42.688;23.360;2022-10-15T06:10:24;10.20;;;5.87;;
7450;SDS011;3767;42.688;23.360;2022-10-15T06:12:52;9.13;;;6.10;;
7450;SDS011;3767;42.688;23.360;2022-10-15T06:15:18;8.13;;;5.40;;
7450;SDS011;3767;42.688;23.360;2022-10-15T06:17:45;13.90;;;6.07;;
7450;SDS011;3767;42.688;23.360;2022-10-15T06:20:13;11.13;;;5.63;;
7450;SDS011;3767;42.688;23.360;2022-10-15T06:22:39;13.37;;;6.10;;
7450;SDS011;3767;42.688;23.360;2022-10-15T06:25:06;7.57;;;5.23;;
7450;SDS011;3767;42.688;23.360;2022-10-15T06:27:33;9.17;;;5.20;;
7450;SDS011;3767;42.688;23.360;2022-10-15T06:29:59;7.23;;;5.50;;
7450;SDS011;3767;42.688;23.360;2022-10-15T06:32:26;11.40;;;5.03;;
7450;SDS011;3767;42.688;23.360;2022-10-15T06:34:52;6.83;;;4.70;;
7450;SDS011;3767;42.688;23.360;2022-10-15T06:37:20;8.17;;;5.27;;
7450;SDS011;3767;42.688;23.360;2022-10-15T06:39:47;6.20;;;5.07;;
7450;SDS011;3767;42.688;23.360;2022-10-15T06:42:13;5.63;;;5.00;;
7450;SDS011;3767;42.688;23.360;2022-10-15T06:44:40;7.73;;;5.07;;
7450;SDS011;3767;42.688;23.360;2022-10-15T06:47:06;5.73;;;4.93;;
7450;SDS011;3767;42.688;23.360;2022-10-15T06:49:33;8.07;;;4.90;;
7450;SDS011;3767;42.688;23.360;2022-10-15T06:51:59;7.30;;;5.17;;
7450;SDS011;3767;42.688;23.360;2022-10-15T06:54:27;6.17;;;4.80;;
7450;SDS011;3767;42.688;23.360;2022-10-15T06:56:54;9.23;;;5.13;;
7450;SDS011;3767;42.688;23.360;2022-10-15T06:59:20;5.83;;;4.73;;
7450;SDS011;3767;42.688;23.360;2022-10-15T07:01:47;6.13;;;5.13;;
7450;SDS011;3767;42.688;23.360;2022-10-15T07:04:13;6.70;;;4.70;;
7450;SDS011;3767;42.688;23.360;2022-10-15T07:06:40;8.87;;;4.83;;
7450;SDS011;3767;42.688;23.360;2022-10-15T07:09:06;8.67;;;4.60;;
7450;SDS011;3767;42.688;23.360;2022-10-15T07:11:34;5.03;;;4.20;;
7450;SDS011;3767;42.688;23.360;2022-10-15T07:14:01;5.90;;;4.77;;
7450;SDS011;3767;42.688;23.360;2022-10-15T07:16:27;5.27;;;4.10;;
7450;SDS011;3767;42.688;23.360;2022-10-15T07:18:53;9.97;;;5.03;;
7450;SDS011;3767;42.688;23.360;2022-10-15T07:21:20;10.27;;;5.30;;
7450;SDS011;3767;42.688;23.360;2022-10-15T07:23:46;4.73;;;4.33;;
7450;SDS011;3767;42.688;23.360;2022-10-15T07:26:13;8.27;;;4.67;;
7450;SDS011;3767;42.688;23.360;2022-10-15T07:28:41;8.03;;;4.13;;
7450;SDS011;3767;42.688;23.360;2022-10-15T07:31:07;5.53;;;4.97;;
7450;SDS011;3767;42.688;23.360;2022-10-15T07:33:34;5.83;;;4.37;;
7450;SDS011;3767;42.688;23.360;2022-10-15T07:36:01;4.37;;;4.07;;
7450;SDS011;3767;42.688;23.360;2022-10-15T07:38:28;5.57;;;4.70;;
7450;SDS011;3767;42.688;23.360;2022-10-15T07:40:56;10.37;;;4.53;;
7450;SDS011;3767;42.688;23.360;2022-10-15T07:43:23;4.43;;;4.03;;
7450;SDS011;3767;42.688;23.360;2022-10-15T07:45:50;4.83;;;4.30;;
7450;SDS011;3767;42.688;23.360;2022-10-15T07:48:17;5.10;;;4.30;;
7450;SDS011;3767;42.688;23.360;2022-10-15T07:50:43;5.87;;;4.17;;
7450;SDS011;3767;42.688;23.360;2022-10-15T07:53:10;5.10;;;4.60;;
7450;SDS011;3767;42.688;23.360;2022-10-15T07:55:37;4.67;;;4.27;;
7450;SDS011;3767;42.688;23.360;2022-10-15T07:58:03;4.83;;;4.33;;
7450;SDS011;3767;42.688;23.360;2022-10-15T08:00:32;5.60;;;5.10;;
7450;SDS011;3767;42.688;23.360;2022-10-15T08:03:00;4.27;;;3.80;;
7450;SDS011;3767;42.688;23.360;2022-10-15T08:05:27;5.80;;;4.10;;
7450;SDS011;3767;42.688;23.360;2022-10-15T08:07:53;4.83;;;4.03;;
7450;SDS011;3767;42.688;23.360;2022-10-15T08:10:20;6.23;;;4.27;;
7450;SDS011;3767;42.688;23.360;2022-10-15T08:12:46;4.90;;;4.40;;
7450;SDS011;3767;42.688;23.360;2022-10-15T08:15:13;7.37;;;4.00;;
7450;SDS011;3767;42.688;23.360;2022-10-15T08:17:39;5.93;;;4.40;;
7450;SDS011;3767;42.688;23.360;2022-10-15T08:20:07;4.53;;;4.23;;
7450;SDS011;3767;42.688;23.360;2022-10-15T08:22:34;9.47;;;4.87;;
7450;SDS011;3767;42.688;23.360;2022-10-15T08:25:01;7.23;;;4.77;;
7450;SDS011;3767;42.688;23.360;2022-10-15T08:27:27;7.77;;;4.80;;
7450;SDS011;3767;42.688;23.360;2022-10-15T08:29:54;8.93;;;5.90;;
7450;SDS011;3767;42.688;23.360;2022-10-15T08:32:20;6.00;;;4.87;;
7450;SDS011;3767;42.688;23.360;2022-10-15T08:34:46;4.80;;;4.33;;
7450;SDS011;3767;42.688;23.360;2022-10-15T08:37:14;5.63;;;4.60;;
7450;SDS011;3767;42.688;23.360;2022-10-15T08:39:41;5.10;;;4.70;;
7450;SDS011;3767;42.688;23.360;2022-10-15T08:42:11;5.17;;;4.70;;
7450;SDS011;3767;42.688;23.360;2022-10-15T08:44:40;10.20;;;5.50;;
7450;SDS011;3767;42.688;23.360;2022-10-15T08:47:10;9.87;;;5.03;;
7450;SDS011;3767;42.688;23.360;2022-10-15T08:49:40;5.83;;;4.57;;
7450;SDS011;3767;42.688;23.360;2022-10-15T08:52:13;6.13;;;4.00;;
7450;SDS011;3767;42.688;23.360;2022-10-15T08:54:43;4.97;;;4.57;;
7450;SDS011;3767;42.688;23.360;2022-10-15T08:57:15;4.97;;;4.35;;
7450;SDS011;3767;42.688;23.360;2022-10-15T08:59:44;3.58;;;3.25;;
7450;SDS011;3767;42.688;23.360;2022-10-15T09:02:15;4.28;;;3.60;;
7450;SDS011;3767;42.688;23.360;2022-10-15T09:04:46;5.18;;;4.15;;
7450;SDS011;3767;42.688;23.360;2022-10-15T09:07:15;4.72;;;4.00;;
7450;SDS011;3767;42.688;23.360;2022-10-15T09:09:46;4.47;;;3.70;;
7450;SDS011;3767;42.688;23.360;2022-10-15T09:12:19;6.28;;;3.80;;
7450;SDS011;3767;42.688;23.360;2022-10-15T09:14:47;4.22;;;4.03;;
7450;SDS011;3767;42.688;23.360;2022-10-15T09:17:16;3.95;;;3.65;;
7450;SDS011;3767;42.688;23.360;2022-10-15T09:19:44;4.90;;;4.40;;
7450;SDS011;3767;42.688;23.360;2022-10-15T09:22:11;5.20;;;4.20;;
7450;SDS011;3767;42.688;23.360;2022-10-15T09:24:40;4.90;;;4.60;;
7450;SDS011;3767;42.688;23.360;2022-10-15T09:27:08;4.70;;;4.30;;
7450;SDS011;3767;42.688;23.360;2022-10-15T09:29:39;4.70;;;4.40;;
7450;SDS011;3767;42.688;23.360;2022-10-15T09:32:12;4.88;;;4.50;;
7450;SDS011;3767;42.688;23.360;2022-10-15T09:34:42;7.07;;;4.13;;
7450;SDS011;3767;42.688;23.360;2022-10-15T09:37:12;4.35;;;4.05;;
7450;SDS011;3767;42.688;23.360;2022-10-15T09:39:43;4.22;;;3.92;;
7450;SDS011;3767;42.688;23.360;2022-10-15T09:42:15;4.50;;;4.10;;
7450;SDS011;3767;42.688;23.360;2022-10-15T09:44:46;4.40;;;4.00;;
7450;SDS011;3767;42.688;23.360;2022-10-15T09:47:14;6.65;;;4.18;;
7450;SDS011;3767;42.688;23.360;2022-10-15T09:49:40;6.10;;;4.65;;
7450;SDS011;3767;42.688;23.360;2022-10-15T09:52:08;4.00;;;3.80;;
7450;SDS011;3767;42.688;23.360;2022-10-15T09:54:38;5.63;;;4.28;;
7450;SDS011;3767;42.688;23.360;2022-10-15T09:57:08;5.68;;;4.18;;
7450;SDS011;3767;42.688;23.360;2022-10-15T09:59:36;4.10;;;3.83;;
7450;SDS011;3767;42.688;23.360;2022-10-15T10:02:04;4.68;;;4.25;;
7450;SDS011;3767;42.688;23.360;2022-10-15T10:04:31;4.60;;;4.22;;
7450;SDS011;3767;42.688;23.360;2022-10-15T10:06:59;4.32;;;4.13;;
7450;SDS011;3767;42.688;23.360;2022-10-15T10:09:28;4.40;;;4.10;;
7450;SDS011;3767;42.688;23.360;2022-10-15T10:11:57;4.30;;;4.00;;
7450;SDS011;3767;42.688;23.360;2022-10-15T10:14:25;5.82;;;3.92;;
7450;SDS011;3767;42.688;23.360;2022-10-15T10:22:30;4.43;;;4.03;;
7450;SDS011;3767;42.688;23.360;2022-10-15T10:25:09;4.40;;;3.95;;
7450;SDS011;3767;42.688;23.360;2022-10-15T10:27:48;4.28;;;3.88;;
7450;SDS011;3767;42.688;23.360;2022-10-15T10:30:14;4.47;;;4.13;;
7450;SDS011;3767;42.688;23.360;2022-10-15T10:32:41;3.70;;;3.40;;
7450;SDS011;3767;42.688;23.360;2022-10-15T10:35:13;5.47;;;3.65;;
7450;SDS011;3767;42.688;23.360;2022-10-15T10:37:46;3.75;;;3.58;;
7450;SDS011;3767;42.688;23.360;2022-10-15T10:40:20;3.42;;;3.22;;
7450;SDS011;3767;42.688;23.360;2022-10-15T10:42:47;3.63;;;3.53;;
7450;SDS011;3767;42.688;23.360;2022-10-15T10:45:17;5.28;;;4.50;;
7450;SDS011;3767;42.688;23.360;2022-10-15T10:47:44;4.22;;;3.90;;
7450;SDS011;3767;42.688;23.360;2022-10-15T10:50:25;4.05;;;3.50;;
7450;SDS011;3767;42.688;23.360;2022-10-15T10:52:53;3.53;;;3.03;;
7450;SDS011;3767;42.688;23.360;2022-10-15T10:55:21;3.17;;;2.97;;
7450;SDS011;3767;42.688;23.360;2022-10-15T10:57:49;3.42;;;3.22;;
7450;SDS011;3767;42.688;23.360;2022-10-15T11:00:17;3.40;;;3.10;;
7450;SDS011;3767;42.688;23.360;2022-10-15T11:02:45;3.10;;;3.00;;
7450;SDS011;3767;42.688;23.360;2022-10-15T11:05:11;2.70;;;2.50;;
7450;SDS011;3767;42.688;23.360;2022-10-15T11:07:40;3.20;;;2.90;;
7450;SDS011;3767;42.688;23.360;2022-10-15T11:10:12;3.00;;;2.90;;
7450;SDS011;3767;42.688;23.360;2022-10-15T11:12:54;2.85;;;2.70;;
7450;SDS011;3767;42.688;23.360;2022-10-15T11:15:32;2.80;;;2.70;;
7450;SDS011;3767;42.688;23.360;2022-10-15T11:18:06;6.05;;;2.85;;
7450;SDS011;3767;42.688;23.360;2022-10-15T11:20:45;2.80;;;2.60;;
7450;SDS011;3767;42.688;23.360;2022-10-15T11:23:16;2.78;;;2.63;;
7450;SDS011;3767;42.688;23.360;2022-10-15T11:25:50;2.60;;;2.50;;
7450;SDS011;3767;42.688;23.360;2022-10-15T11:28:26;3.22;;;2.92;;
7450;SDS011;3767;42.688;23.360;2022-10-15T11:30:58;3.13;;;2.78;;
7450;SDS011;3767;42.688;23.360;2022-10-15T11:33:29;4.22;;;3.20;;
7450;SDS011;3767;42.688;23.360;2022-10-15T11:36:00;3.38;;;3.00;;
7450;SDS011;3767;42.688;23.360;2022-10-15T11:38:32;2.80;;;2.60;;
7450;SDS011;3767;42.688;23.360;2022-10-15T11:41:06;2.63;;;2.33;;
7450;SDS011;3767;42.688;23.360;2022-10-15T11:43:40;2.60;;;2.50;;
7450;SDS011;3767;42.688;23.360;2022-10-15T11:46:10;3.63;;;2.42;;
7450;SDS011;3767;42.688;23.360;2022-10-15T11:48:40;2.80;;;2.58;;
7450;SDS011;3767;42.688;23.360;2022-10-15T11:51:13;3.03;;;2.47;;
7450;SDS011;3767;42.688;23.360;2022-10-15T11:53:49;2.30;;;2.20;;
7450;SDS011;3767;42.688;23.360;2022-10-15T11:56:19;3.15;;;2.60;;
7450;SDS011;3767;42.688;23.360;2022-10-15T11:58:48;2.50;;;2.35;;
7450;SDS011;3767;42.688;23.360;2022-10-15T12:01:17;2.90;;;2.70;;
7450;SDS011;3767;42.688;23.360;2022-10-15T12:03:48;3.20;;;2.90;;
7450;SDS011;3767;42.688;23.360;2022-10-15T12:06:16;4.15;;;2.83;;
7450;SDS011;3767;42.688;23.360;2022-10-15T12:08:44;2.53;;;2.42;;
7450;SDS011;3767;42.688;23.360;2022-10-15T12:11:14;6.25;;;2.78;;
7450;SDS011;3767;42.688;23.360;2022-10-15T12:13:45;2.70;;;2.50;;
7450;SDS011;3767;42.688;23.360;2022-10-15T12:16:15;3.38;;;2.35;;
7450;SDS011;3767;42.688;23.360;2022-10-15T12:18:46;2.72;;;2.53;;
7450;SDS011;3767;42.688;23.360;2022-10-15T12:21:32;3.42;;;2.65;;
7450;SDS011;3767;42.688;23.360;2022-10-15T12:23:59;3.60;;;3.38;;
7450;SDS011;3767;42.688;23.360;2022-10-15T12:26:27;3.83;;;2.60;;
7450;SDS011;3767;42.688;23.360;2022-10-15T12:28:57;5.20;;;2.50;;
7450;SDS011;3767;42.688;23.360;2022-10-15T12:31:24;3.33;;;3.05;;
7450;SDS011;3767;42.688;23.360;2022-10-15T12:33:51;2.85;;;2.45;;
7450;SDS011;3767;42.688;23.360;2022-10-15T12:36:20;2.60;;;2.40;;
7450;SDS011;3767;42.688;23.360;2022-10-15T12:38:51;2.65;;;2.45;;
7450;SDS011;3767;42.688;23.360;2022-10-15T12:41:19;2.10;;;2.00;;
7450;SDS011;3767;42.688;23.360;2022-10-15T12:43:47;2.72;;;2.30;;
7450;SDS011;3767;42.688;23.360;2022-10-15T12:46:17;3.33;;;2.05;;
7450;SDS011;3767;42.688;23.360;2022-10-15T12:48:44;2.10;;;2.00;;
7450;SDS011;3767;42.688;23.360;2022-10-15T12:53:53;3.20;;;2.28;;
7450;SDS011;3767;42.688;23.360;2022-10-15T12:56:22;2.55;;;2.33;;
7450;SDS011;3767;42.688;23.360;2022-10-15T12:58:49;2.67;;;2.47;;
7450;SDS011;3767;42.688;23.360;2022-10-15T13:01:30;4.80;;;2.35;;
7450;SDS011;3767;42.688;23.360;2022-10-15T13:04:14;4.03;;;2.65;;
7450;SDS011;3767;42.688;23.360;2022-10-15T13:06:41;4.22;;;3.22;;
7450;SDS011;3767;42.688;23.360;2022-10-15T13:09:20;3.67;;;3.42;;
7450;SDS011;3767;42.688;23.360;2022-10-15T13:11:49;4.13;;;3.72;;
7450;SDS011;3767;42.688;23.360;2022-10-15T13:14:17;4.70;;;3.92;;
7450;SDS011;3767;42.688;23.360;2022-10-15T13:16:47;2.90;;;2.70;;
7450;SDS011;3767;42.688;23.360;2022-10-15T13:19:18;3.05;;;2.85;;
7450;SDS011;3767;42.688;23.360;2022-10-15T13:21:46;4.75;;;3.60;;
7450;SDS011;3767;42.688;23.360;2022-10-15T13:24:13;3.22;;;2.88;;
7450;SDS011;3767;42.688;23.360;2022-10-15T13:26:41;5.05;;;2.83;;
7450;SDS011;3767;42.688;23.360;2022-10-15T13:29:12;4.60;;;4.30;;
7450;SDS011;3767;42.688;23.360;2022-10-15T13:31:40;3.90;;;3.60;;
7450;SDS011;3767;42.688;23.360;2022-10-15T13:34:13;3.50;;;3.25;;
7450;SDS011;3767;42.688;23.360;2022-10-15T13:36:41;4.38;;;2.97;;
7450;SDS011;3767;42.688;23.360;2022-10-15T13:39:19;4.35;;;2.92;;
7450;SDS011;3767;42.688;23.360;2022-10-15T13:41:47;8.23;;;5.90;;
7450;SDS011;3767;42.688;23.360;2022-10-15T13:44:18;12.07;;;8.07;;
7450;SDS011;3767;42.688;23.360;2022-10-15T13:46:45;3.40;;;3.20;;
7450;SDS011;3767;42.688;23.360;2022-10-15T13:49:13;5.75;;;3.50;;
7450;SDS011;3767;42.688;23.360;2022-10-15T13:51:41;3.88;;;3.20;;
7450;SDS011;3767;42.688;23.360;2022-10-15T13:54:09;7.97;;;3.92;;
7450;SDS011;3767;42.688;23.360;2022-10-15T13:56:37;5.60;;;2.83;;
7450;SDS011;3767;42.688;23.360;2022-10-15T13:59:11;4.10;;;3.80;;
7450;SDS011;3767;42.688;23.360;2022-10-15T14:01:43;3.47;;;3.17;;
7450;SDS011;3767;42.688;23.360;2022-10-15T14:04:14;2.72;;;2.50;;
7450;SDS011;3767;42.688;23.360;2022-10-15T14:06:41;3.42;;;3.00;;
7450;SDS011;3767;42.688;23.360;2022-10-15T14:09:18;3.05;;;2.83;;
7450;SDS011;3767;42.688;23.360;2022-10-15T14:11:47;10.50;;;2.45;;
7450;SDS011;3767;42.688;23.360;2022-10-15T14:14:27;4.05;;;2.80;;
7450;SDS011;3767;42.688;23.360;2022-10-15T14:16:53;3.05;;;2.85;;
7450;SDS011;3767;42.688;23.360;2022-10-15T14:19:22;3.47;;;2.88;;
7450;SDS011;3767;42.688;23.360;2022-10-15T14:21:51;5.25;;;2.90;;
7450;SDS011;3767;42.688;23.360;2022-10-15T14:24:18;3.33;;;2.92;;
7450;SDS011;3767;42.688;23.360;2022-10-15T14:26:45;2.70;;;2.50;;
7450;SDS011;3767;42.688;23.360;2022-10-15T14:29:14;5.22;;;2.70;;
7450;SDS011;3767;42.688;23.360;2022-10-15T14:31:46;5.25;;;2.80;;
7450;SDS011;3767;42.688;23.360;2022-10-15T14:34:30;3.35;;;2.60;;
7450;SDS011;3767;42.688;23.360;2022-10-15T14:37:00;3.47;;;2.67;;
7450;SDS011;3767;42.688;23.360;2022-10-15T14:39:28;3.28;;;2.95;;
7450;SDS011;3767;42.688;23.360;2022-10-15T14:41:56;4.50;;;4.10;;
7450;SDS011;3767;42.688;23.360;2022-10-15T14:44:23;4.10;;;3.55;;
7450;SDS011;3767;42.688;23.360;2022-10-15T14:46:50;3.63;;;2.83;;
7450;SDS011;3767;42.688;23.360;2022-10-15T14:49:20;3.78;;;3.00;;
7450;SDS011;3767;42.688;23.360;2022-10-15T14:51:55;4.47;;;3.50;;
7450;SDS011;3767;42.688;23.360;2022-10-15T14:54:24;7.47;;;3.80;;
7450;SDS011;3767;42.688;23.360;2022-10-15T14:56:53;6.57;;;3.05;;
7450;SDS011;3767;42.688;23.360;2022-10-15T14:59:20;4.78;;;2.90;;
7450;SDS011;3767;42.688;23.360;2022-10-15T15:01:53;3.00;;;2.90;;
7450;SDS011;3767;42.688;23.360;2022-10-15T15:04:33;3.60;;;3.30;;
7450;SDS011;3767;42.688;23.360;2022-10-15T15:07:03;4.32;;;3.30;;
7450;SDS011;3767;42.688;23.360;2022-10-15T15:09:31;6.20;;;3.33;;
7450;SDS011;3767;42.688;23.360;2022-10-15T15:11:58;3.65;;;3.33;;
7450;SDS011;3767;42.688;23.360;2022-10-15T15:14:24;4.05;;;3.75;;
7450;SDS011;3767;42.688;23.360;2022-10-15T15:16:51;5.32;;;2.95;;